sensor_id;sensor_type;location;lat;lon;timestamp;temperature;humidity
25342;DHT22;13298;48.792;9.154;2023-12-04T00:01:19;-5.50;99.90
25342;DHT22;13298;48.792;9.154;2023-12-04T00:03:45;-5.40;99.90
25342;DHT22;13298;48.792;9.154;2023-12-04T00:06:11;-5.40;99.90
25342;DHT22;13298;48.792;9.154;2023-12-04T00:08:37;-5.40;99.90
25342;DHT22;13298;48.792;9.154;2023-12-04T00:11:04;-5.40;99.90
25342;DHT22;13298;48.792;9.154;2023-12-04T00:13:30;-5.40;99.90
25342;DHT22;13298;48.792;9.154;2023-12-04T00:15:56;-5.40;99.90
25342;DHT22;13298;48.792;9.154;2023-12-04T00:18:22;-5.40;99.90
25342;DHT22;13298;48.792;9.154;2023-12-04T00:20:48;-5.40;99.90
25342;DHT22;13298;48.792;9.154;2023-12-04T00:23:13;-5.40;99.90
25342;DHT22;13298;48.792;9.154;2023-12-04T00:25:39;-5.40;99.90
25342;DHT22;13298;48.792;9.154;2023-12-04T00:28:05;-5.40;99.90
25342;DHT22;13298;48.792;9.154;2023-12-04T00:30:30;-5.50;99.90
25342;DHT22;13298;48.792;9.154;2023-12-04T00:32:56;-5.40;99.90
25342;DHT22;13298;48.792;9.154;2023-12-04T00:35:22;-5.50;99.90
25342;DHT22;13298;48.792;9.154;2023-12-04T00:37:47;-5.50;99.90
25342;DHT22;13298;48.792;9.154;2023-12-04T00:40:13;-5.50;99.90
25342;DHT22;13298;48.792;9.154;2023-12-04T00:42:39;-5.50;99.90
25342;DHT22;13298;48.792;9.154;2023-12-04T00:45:05;-5.50;99.90
25342;DHT22;13298;48.792;9.154;2023-12-04T00:47:31;-5.50;99.90
25342;DHT22;13298;48.792;9.154;2023-12-04T00:49:57;-5.50;99.90
25342;DHT22;13298;48.792;9.154;2023-12-04T00:52:23;-5.50;99.90
25342;DHT22;13298;48.792;9.154;2023-12-04T00:54:48;-5.50;99.90
25342;DHT22;13298;48.792;9.154;2023-12-04T00:57:14;-5.50;99.90
25342;DHT22;13298;48.792;9.154;2023-12-04T00:59:40;-5.50;99.90
25342;DHT22;13298;48.792;9.154;2023-12-04T01:02:06;-5.50;99.90
25342;DHT22;13298;48.792;9.154;2023-12-04T01:04:33;-5.50;99.90
25342;DHT22;13298;48.792;9.154;2023-12-04T01:06:58;-5.50;99.90
25342;DHT22;13298;48.792;9.154;2023-12-04T01:09:24;-5.40;99.90
25342;DHT22;13298;48.792;9.154;2023-12-04T01:11:52;-5.40;99.90
25342;DHT22;13298;48.792;9.154;2023-12-04T01:14:19;-5.40;99.90
25342;DHT22;13298;48.792;9.154;2023-12-04T01:16:47;-5.40;99.90
25342;DHT22;13298;48.792;9.154;2023-12-04T01:19:13;-5.30;99.90
25342;DHT22;13298;48.792;9.154;2023-12-04T01:21:39;-5.30;99.90
25342;DHT22;13298;48.792;9.154;2023-12-04T01:24:05;-5.30;99.90
25342;DHT22;13298;48.792;9.154;2023-12-04T01:26:30;-5.30;99.90
25342;DHT22;13298;48.792;9.154;2023-12-04T01:28:56;-5.30;99.90
25342;DHT22;13298;48.792;9.154;2023-12-04T01:31:22;-5.20;99.90
25342;DHT22;13298;48.792;9.154;2023-12-04T01:33:48;-5.20;99.90
25342;DHT22;13298;48.792;9.154;2023-12-04T01:36:14;-5.20;99.90
25342;DHT22;13298;48.792;9.154;2023-12-04T01:38:39;-5.20;99.90
25342;DHT22;13298;48.792;9.154;2023-12-04T01:41:05;-5.10;99.90
25342;DHT22;13298;48.792;9.154;2023-12-04T01:43:31;-5.10;99.90
25342;DHT22;13298;48.792;9.154;2023-12-04T01:45:57;-5.10;99.90
25342;DHT22;13298;48.792;9.154;2023-12-04T01:48:25;-5.00;99.90
25342;DHT22;13298;48.792;9.154;2023-12-04T01:50:51;-5.00;99.90
25342;DHT22;13298;48.792;9.154;2023-12-04T01:53:17;-5.00;99.90
25342;DHT22;13298;48.792;9.154;2023-12-04T01:55:43;-5.00;99.90
25342;DHT22;13298;48.792;9.154;2023-12-04T01:58:10;-5.00;99.90
25342;DHT22;13298;48.792;9.154;2023-12-04T02:00:36;-5.00;99.90
25342;DHT22;13298;48.792;9.154;2023-12-04T02:03:02;-5.00;99.90
25342;DHT22;13298;48.792;9.154;2023-12-04T02:05:28;-5.00;99.90
25342;DHT22;13298;48.792;9.154;2023-12-04T02:07:54;-5.00;99.90
25342;DHT22;13298;48.792;9.154;2023-12-04T02:10:21;-5.00;99.90
25342;DHT22;13298;48.792;9.154;2023-12-04T02:12:47;-5.00;99.90
25342;DHT22;13298;48.792;9.154;2023-12-04T02:15:14;-5.00;99.90
25342;DHT22;13298;48.792;9.154;2023-12-04T02:17:39;-4.90;99.90
25342;DHT22;13298;48.792;9.154;2023-12-04T02:20:06;-5.00;99.90
25342;DHT22;13298;48.792;9.154;2023-12-04T02:22:33;-5.00;99.90
25342;DHT22;13298;48.792;9.154;2023-12-04T02:24:59;-5.00;99.90
25342;DHT22;13298;48.792;9.154;2023-12-04T02:27:29;-5.00;99.90
25342;DHT22;13298;48.792;9.154;2023-12-04T02:30:00;-5.10;99.90
25342;DHT22;13298;48.792;9.154;2023-12-04T02:32:29;-5.10;99.90
25342;DHT22;13298;48.792;9.154;2023-12-04T02:34:57;-5.20;99.90
25342;DHT22;13298;48.792;9.154;2023-12-04T02:37:25;-5.20;99.90
25342;DHT22;13298;48.792;9.154;2023-12-04T02:39:51;-5.20;99.90
25342;DHT22;13298;48.792;9.154;2023-12-04T02:42:20;-5.20;99.90
25342;DHT22;13298;48.792;9.154;2023-12-04T02:44:47;-5.30;99.90
25342;DHT22;13298;48.792;9.154;2023-12-04T02:47:13;-5.30;99.90
25342;DHT22;13298;48.792;9.154;2023-12-04T02:49:39;-5.30;99.90
25342;DHT22;13298;48.792;9.154;2023-12-04T02:52:04;-5.30;99.90
25342;DHT22;13298;48.792;9.154;2023-12-04T02:54:30;-5.40;99.90
25342;DHT22;13298;48.792;9.154;2023-12-04T02:56:56;-5.30;99.90
25342;DHT22;13298;48.792;9.154;2023-12-04T02:59:22;-5.40;99.90
25342;DHT22;13298;48.792;9.154;2023-12-04T03:01:47;-5.30;99.90
25342;DHT22;13298;48.792;9.154;2023-12-04T03:04:13;-5.40;99.90
25342;DHT22;13298;48.792;9.154;2023-12-04T03:06:39;-5.40;99.90
25342;DHT22;13298;48.792;9.154;2023-12-04T03:09:04;-5.40;99.90
25342;DHT22;13298;48.792;9.154;2023-12-04T03:11:30;-5.40;99.90
25342;DHT22;13298;48.792;9.154;2023-12-04T03:13:56;-5.40;99.90
25342;DHT22;13298;48.792;9.154;2023-12-04T03:16:23;-5.40;99.90
25342;DHT22;13298;48.792;9.154;2023-12-04T03:18:48;-5.40;99.90
25342;DHT22;13298;48.792;9.154;2023-12-04T03:21:14;-5.40;99.90
25342;DHT22;13298;48.792;9.154;2023-12-04T03:23:40;-5.30;99.90
25342;DHT22;13298;48.792;9.154;2023-12-04T03:26:06;-5.30;99.90
25342;DHT22;13298;48.792;9.154;2023-12-04T03:28:31;-5.30;99.90
25342;DHT22;13298;48.792;9.154;2023-12-04T03:30:57;-5.30;99.90
25342;DHT22;13298;48.792;9.154;2023-12-04T03:33:23;-5.30;99.90
25342;DHT22;13298;48.792;9.154;2023-12-04T03:35:48;-5.20;99.90
25342;DHT22;13298;48.792;9.154;2023-12-04T03:38:14;-5.20;99.90
25342;DHT22;13298;48.792;9.154;2023-12-04T03:40:40;-5.10;99.90
25342;DHT22;13298;48.792;9.154;2023-12-04T03:43:05;-5.10;99.90
25342;DHT22;13298;48.792;9.154;2023-12-04T03:45:31;-5.10;99.90
25342;DHT22;13298;48.792;9.154;2023-12-04T03:47:57;-5.00;99.90
25342;DHT22;13298;48.792;9.154;2023-12-04T03:50:22;-5.00;99.90
25342;DHT22;13298;48.792;9.154;2023-12-04T03:52:48;-5.00;99.90
25342;DHT22;13298;48.792;9.154;2023-12-04T03:55:14;-5.00;99.90
25342;DHT22;13298;48.792;9.154;2023-12-04T03:57:40;-4.90;99.90
25342;DHT22;13298;48.792;9.154;2023-12-04T04:00:06;-4.90;99.90
25342;DHT22;13298;48.792;9.154;2023-12-04T04:02:32;-4.90;99.90
25342;DHT22;13298;48.792;9.154;2023-12-04T04:04:57;-4.90;99.90
25342;DHT22;13298;48.792;9.154;2023-12-04T04:07:23;-4.90;99.90
25342;DHT22;13298;48.792;9.154;2023-12-04T04:09:49;-4.90;99.90
25342;DHT22;13298;48.792;9.154;2023-12-04T04:12:14;-4.90;99.90
25342;DHT22;13298;48.792;9.154;2023-12-04T04:14:40;-4.90;99.90
25342;DHT22;13298;48.792;9.154;2023-12-04T04:17:11;-4.80;99.90
25342;DHT22;13298;48.792;9.154;2023-12-04T04:19:37;-4.80;99.90
25342;DHT22;13298;48.792;9.154;2023-12-04T04:22:03;-4.80;99.90
25342;DHT22;13298;48.792;9.154;2023-12-04T04:24:29;-4.70;99.90
25342;DHT22;13298;48.792;9.154;2023-12-04T04:26:54;-4.70;99.90
25342;DHT22;13298;48.792;9.154;2023-12-04T04:29:20;-4.60;99.90
25342;DHT22;13298;48.792;9.154;2023-12-04T04:31:46;-4.60;99.90
25342;DHT22;13298;48.792;9.154;2023-12-04T04:34:12;-4.60;99.90
25342;DHT22;13298;48.792;9.154;2023-12-04T04:36:37;-4.60;99.90
25342;DHT22;13298;48.792;9.154;2023-12-04T04:39:03;-4.50;99.90
25342;DHT22;13298;48.792;9.154;2023-12-04T04:41:29;-4.60;99.90
25342;DHT22;13298;48.792;9.154;2023-12-04T04:43:54;-4.50;99.90
25342;DHT22;13298;48.792;9.154;2023-12-04T04:46:20;-4.50;99.90
25342;DHT22;13298;48.792;9.154;2023-12-04T04:48:46;-4.50;99.90
25342;DHT22;13298;48.792;9.154;2023-12-04T04:51:11;-4.60;99.90
25342;DHT22;13298;48.792;9.154;2023-12-04T04:53:38;-4.50;99.90
25342;DHT22;13298;48.792;9.154;2023-12-04T04:56:04;-4.60;99.90
25342;DHT22;13298;48.792;9.154;2023-12-04T04:58:30;-4.60;99.90
25342;DHT22;13298;48.792;9.154;2023-12-04T05:00:56;-4.50;99.90
25342;DHT22;13298;48.792;9.154;2023-12-04T05:03:21;-4.50;99.90
25342;DHT22;13298;48.792;9.154;2023-12-04T05:05:47;-4.50;99.90
25342;DHT22;13298;48.792;9.154;2023-12-04T05:08:13;-4.50;99.90
25342;DHT22;13298;48.792;9.154;2023-12-04T05:10:39;-4.50;99.90
25342;DHT22;13298;48.792;9.154;2023-12-04T05:13:05;-4.40;99.90
25342;DHT22;13298;48.792;9.154;2023-12-04T05:15:30;-4.40;99.90
25342;DHT22;13298;48.792;9.154;2023-12-04T05:17:56;-4.40;99.90
25342;DHT22;13298;48.792;9.154;2023-12-04T05:20:22;-4.40;99.90
25342;DHT22;13298;48.792;9.154;2023-12-04T05:22:48;-4.40;99.90
25342;DHT22;13298;48.792;9.154;2023-12-04T05:25:14;-4.40;99.90
25342;DHT22;13298;48.792;9.154;2023-12-04T05:27:40;-4.30;99.90
25342;DHT22;13298;48.792;9.154;2023-12-04T05:30:06;-4.40;99.90
25342;DHT22;13298;48.792;9.154;2023-12-04T05:32:32;-4.30;99.90
25342;DHT22;13298;48.792;9.154;2023-12-04T05:34:58;-4.40;99.90
25342;DHT22;13298;48.792;9.154;2023-12-04T05:37:23;-4.40;99.90
25342;DHT22;13298;48.792;9.154;2023-12-04T05:39:49;-4.40;99.90
25342;DHT22;13298;48.792;9.154;2023-12-04T05:42:15;-4.40;99.90
25342;DHT22;13298;48.792;9.154;2023-12-04T05:44:41;-4.30;99.90
25342;DHT22;13298;48.792;9.154;2023-12-04T05:47:07;-4.40;99.90
25342;DHT22;13298;48.792;9.154;2023-12-04T05:49:33;-4.30;99.90
25342;DHT22;13298;48.792;9.154;2023-12-04T05:51:59;-4.30;99.90
25342;DHT22;13298;48.792;9.154;2023-12-04T05:54:25;-4.30;99.90
25342;DHT22;13298;48.792;9.154;2023-12-04T05:56:51;-4.30;99.90
25342;DHT22;13298;48.792;9.154;2023-12-04T05:59:16;-4.30;99.90
25342;DHT22;13298;48.792;9.154;2023-12-04T06:01:42;-4.30;99.90
25342;DHT22;13298;48.792;9.154;2023-12-04T06:04:08;-4.30;99.90
25342;DHT22;13298;48.792;9.154;2023-12-04T06:06:34;-4.30;99.90
25342;DHT22;13298;48.792;9.154;2023-12-04T06:08:59;-4.20;99.90
25342;DHT22;13298;48.792;9.154;2023-12-04T06:11:25;-4.30;99.90
25342;DHT22;13298;48.792;9.154;2023-12-04T06:13:51;-4.30;99.90
25342;DHT22;13298;48.792;9.154;2023-12-04T06:16:17;-4.30;99.90
25342;DHT22;13298;48.792;9.154;2023-12-04T06:18:43;-4.30;99.90
25342;DHT22;13298;48.792;9.154;2023-12-04T06:21:08;-4.20;99.90
25342;DHT22;13298;48.792;9.154;2023-12-04T06:23:34;-4.30;99.90
25342;DHT22;13298;48.792;9.154;2023-12-04T06:26:00;-4.20;99.90
25342;DHT22;13298;48.792;9.154;2023-12-04T06:28:26;-4.20;99.90
25342;DHT22;13298;48.792;9.154;2023-12-04T06:30:52;-4.20;99.90
25342;DHT22;13298;48.792;9.154;2023-12-04T06:33:18;-4.20;99.90
25342;DHT22;13298;48.792;9.154;2023-12-04T06:35:46;-4.10;99.90
25342;DHT22;13298;48.792;9.154;2023-12-04T06:38:16;-4.10;99.90
25342;DHT22;13298;48.792;9.154;2023-12-04T06:40:44;-4.10;99.90
25342;DHT22;13298;48.792;9.154;2023-12-04T06:43:10;-4.10;99.90
25342;DHT22;13298;48.792;9.154;2023-12-04T06:45:36;-4.00;99.90
25342;DHT22;13298;48.792;9.154;2023-12-04T06:48:02;-4.10;99.90
25342;DHT22;13298;48.792;9.154;2023-12-04T06:50:28;-4.10;99.90
25342;DHT22;13298;48.792;9.154;2023-12-04T06:52:54;-4.10;99.90
25342;DHT22;13298;48.792;9.154;2023-12-04T06:55:20;-4.10;99.90
25342;DHT22;13298;48.792;9.154;2023-12-04T06:57:45;-4.10;99.90
25342;DHT22;13298;48.792;9.154;2023-12-04T07:00:11;-4.10;99.90
25342;DHT22;13298;48.792;9.154;2023-12-04T07:02:41;-4.10;99.90
25342;DHT22;13298;48.792;9.154;2023-12-04T07:05:07;-4.10;99.90
25342;DHT22;13298;48.792;9.154;2023-12-04T07:07:33;-4.10;99.90
25342;DHT22;13298;48.792;9.154;2023-12-04T07:09:59;-4.00;99.90
25342;DHT22;13298;48.792;9.154;2023-12-04T07:12:24;-4.00;99.90
25342;DHT22;13298;48.792;9.154;2023-12-04T07:14:50;-4.00;99.90
25342;DHT22;13298;48.792;9.154;2023-12-04T07:17:16;-3.90;99.90
25342;DHT22;13298;48.792;9.154;2023-12-04T07:19:42;-3.90;99.90
25342;DHT22;13298;48.792;9.154;2023-12-04T07:22:08;-3.80;99.90
25342;DHT22;13298;48.792;9.154;2023-12-04T07:24:33;-3.70;99.90
25342;DHT22;13298;48.792;9.154;2023-12-04T07:26:59;-3.70;99.90
25342;DHT22;13298;48.792;9.154;2023-12-04T07:29:25;-3.60;99.90
25342;DHT22;13298;48.792;9.154;2023-12-04T07:31:51;-3.60;99.90
25342;DHT22;13298;48.792;9.154;2023-12-04T07:34:17;-3.50;99.90
25342;DHT22;13298;48.792;9.154;2023-12-04T07:36:42;-3.50;99.90
25342;DHT22;13298;48.792;9.154;2023-12-04T07:39:10;-3.50;99.90
25342;DHT22;13298;48.792;9.154;2023-12-04T07:41:36;-3.50;99.90
25342;DHT22;13298;48.792;9.154;2023-12-04T07:44:02;-3.40;99.90
25342;DHT22;13298;48.792;9.154;2023-12-04T07:46:29;-3.40;99.90
25342;DHT22;13298;48.792;9.154;2023-12-04T07:48:55;-3.40;99.90
25342;DHT22;13298;48.792;9.154;2023-12-04T07:51:20;-3.30;99.90
25342;DHT22;13298;48.792;9.154;2023-12-04T07:53:46;-3.30;99.90
25342;DHT22;13298;48.792;9.154;2023-12-04T07:56:13;-3.20;99.90
25342;DHT22;13298;48.792;9.154;2023-12-04T07:58:39;-3.20;99.90
25342;DHT22;13298;48.792;9.154;2023-12-04T08:01:05;-3.10;99.90
25342;DHT22;13298;48.792;9.154;2023-12-04T08:03:31;-3.00;99.90
25342;DHT22;13298;48.792;9.154;2023-12-04T08:05:57;-2.90;99.90
25342;DHT22;13298;48.792;9.154;2023-12-04T08:08:23;-2.80;99.90
25342;DHT22;13298;48.792;9.154;2023-12-04T08:10:49;-2.80;99.90
25342;DHT22;13298;48.792;9.154;2023-12-04T08:13:15;-2.70;99.90
25342;DHT22;13298;48.792;9.154;2023-12-04T08:15:42;-2.60;99.90
25342;DHT22;13298;48.792;9.154;2023-12-04T08:18:08;-2.50;99.90
25342;DHT22;13298;48.792;9.154;2023-12-04T08:20:34;-2.40;99.90
25342;DHT22;13298;48.792;9.154;2023-12-04T08:22:59;-2.30;99.90
25342;DHT22;13298;48.792;9.154;2023-12-04T08:25:25;-2.30;99.90
25342;DHT22;13298;48.792;9.154;2023-12-04T08:27:51;-2.30;99.90
25342;DHT22;13298;48.792;9.154;2023-12-04T08:30:17;-2.30;99.90
25342;DHT22;13298;48.792;9.154;2023-12-04T08:32:43;-2.30;99.90
25342;DHT22;13298;48.792;9.154;2023-12-04T08:35:09;-2.20;99.90
25342;DHT22;13298;48.792;9.154;2023-12-04T08:37:35;-2.20;99.90
25342;DHT22;13298;48.792;9.154;2023-12-04T08:40:00;-2.10;99.90
25342;DHT22;13298;48.792;9.154;2023-12-04T08:42:28;-2.10;99.90
25342;DHT22;13298;48.792;9.154;2023-12-04T08:44:54;-2.00;99.90
25342;DHT22;13298;48.792;9.154;2023-12-04T08:47:20;-2.00;99.90
25342;DHT22;13298;48.792;9.154;2023-12-04T08:49:46;-1.90;99.90
25342;DHT22;13298;48.792;9.154;2023-12-04T08:52:12;-1.80;99.90
25342;DHT22;13298;48.792;9.154;2023-12-04T08:54:41;-1.70;99.90
25342;DHT22;13298;48.792;9.154;2023-12-04T08:57:07;-1.60;99.90
25342;DHT22;13298;48.792;9.154;2023-12-04T08:59:33;-1.40;99.90
25342;DHT22;13298;48.792;9.154;2023-12-04T09:01:58;-1.30;99.90
25342;DHT22;13298;48.792;9.154;2023-12-04T09:04:24;-1.30;99.90
25342;DHT22;13298;48.792;9.154;2023-12-04T09:06:50;-1.30;99.90
25342;DHT22;13298;48.792;9.154;2023-12-04T09:09:16;-1.20;99.90
25342;DHT22;13298;48.792;9.154;2023-12-04T09:11:42;-1.20;99.90
25342;DHT22;13298;48.792;9.154;2023-12-04T09:14:09;-1.20;99.90
25342;DHT22;13298;48.792;9.154;2023-12-04T09:16:35;-1.20;99.90
25342;DHT22;13298;48.792;9.154;2023-12-04T09:19:00;-1.20;99.90
25342;DHT22;13298;48.792;9.154;2023-12-04T09:21:26;-1.20;99.90
25342;DHT22;13298;48.792;9.154;2023-12-04T09:23:52;-1.20;99.90
25342;DHT22;13298;48.792;9.154;2023-12-04T09:26:18;-1.30;99.90
25342;DHT22;13298;48.792;9.154;2023-12-04T09:28:44;-1.20;99.90
25342;DHT22;13298;48.792;9.154;2023-12-04T09:31:09;-1.30;99.90
25342;DHT22;13298;48.792;9.154;2023-12-04T09:33:35;-1.30;99.90
25342;DHT22;13298;48.792;9.154;2023-12-04T09:36:02;-1.10;99.90
25342;DHT22;13298;48.792;9.154;2023-12-04T09:38:28;-1.10;99.90
25342;DHT22;13298;48.792;9.154;2023-12-04T09:40:59;-1.00;99.90
25342;DHT22;13298;48.792;9.154;2023-12-04T09:43:29;-0.90;99.90
25342;DHT22;13298;48.792;9.154;2023-12-04T09:45:56;-0.90;99.90
25342;DHT22;13298;48.792;9.154;2023-12-04T09:48:25;-0.80;99.90
25342;DHT22;13298;48.792;9.154;2023-12-04T09:50:52;-0.80;99.90
25342;DHT22;13298;48.792;9.154;2023-12-04T09:53:18;-0.80;99.90
25342;DHT22;13298;48.792;9.154;2023-12-04T09:55:46;-0.80;99.90
25342;DHT22;13298;48.792;9.154;2023-12-04T09:58:14;-0.70;99.90
25342;DHT22;13298;48.792;9.154;2023-12-04T10:00:42;-0.70;99.90
25342;DHT22;13298;48.792;9.154;2023-12-04T10:03:08;-0.80;99.90
25342;DHT22;13298;48.792;9.154;2023-12-04T10:05:33;-0.80;99.90
25342;DHT22;13298;48.792;9.154;2023-12-04T10:07:59;-0.80;99.90
25342;DHT22;13298;48.792;9.154;2023-12-04T10:10:25;-0.70;99.90
25342;DHT22;13298;48.792;9.154;2023-12-04T10:12:51;-0.60;99.90
25342;DHT22;13298;48.792;9.154;2023-12-04T10:15:16;-0.40;99.90
25342;DHT22;13298;48.792;9.154;2023-12-04T10:17:43;-0.30;99.90
25342;DHT22;13298;48.792;9.154;2023-12-04T10:20:14;-0.20;99.90
25342;DHT22;13298;48.792;9.154;2023-12-04T10:22:57;-0.10;99.90
25342;DHT22;13298;48.792;9.154;2023-12-04T10:25:27;0.00;99.90
25342;DHT22;13298;48.792;9.154;2023-12-04T10:28:10;0.10;99.90
25342;DHT22;13298;48.792;9.154;2023-12-04T10:30:37;0.20;99.90
25342;DHT22;13298;48.792;9.154;2023-12-04T10:33:04;0.30;99.90
25342;DHT22;13298;48.792;9.154;2023-12-04T10:35:32;0.40;99.90
25342;DHT22;13298;48.792;9.154;2023-12-04T10:37:59;0.50;99.90
25342;DHT22;13298;48.792;9.154;2023-12-04T10:40:29;0.50;99.90
25342;DHT22;13298;48.792;9.154;2023-12-04T10:43:17;0.60;99.90
25342;DHT22;13298;48.792;9.154;2023-12-04T10:45:46;0.70;99.90
25342;DHT22;13298;48.792;9.154;2023-12-04T10:48:14;0.70;99.90
25342;DHT22;13298;48.792;9.154;2023-12-04T10:50:43;0.90;99.90
25342;DHT22;13298;48.792;9.154;2023-12-04T10:53:12;1.00;99.90
25342;DHT22;13298;48.792;9.154;2023-12-04T10:55:40;1.10;99.90
25342;DHT22;13298;48.792;9.154;2023-12-04T10:58:11;1.10;99.90
25342;DHT22;13298;48.792;9.154;2023-12-04T11:03:13;1.10;99.90
25342;DHT22;13298;48.792;9.154;2023-12-04T11:05:45;1.20;99.90
25342;DHT22;13298;48.792;9.154;2023-12-04T11:08:15;1.30;99.90
25342;DHT22;13298;48.792;9.154;2023-12-04T11:10:48;1.40;99.90
25342;DHT22;13298;48.792;9.154;2023-12-04T11:13:23;1.60;99.90
25342;DHT22;13298;48.792;9.154;2023-12-04T11:16:00;1.70;99.90
25342;DHT22;13298;48.792;9.154;2023-12-04T11:18:27;1.80;99.90
25342;DHT22;13298;48.792;9.154;2023-12-04T11:21:02;1.80;99.90
25342;DHT22;13298;48.792;9.154;2023-12-04T11:23:31;1.80;99.90
25342;DHT22;13298;48.792;9.154;2023-12-04T11:25:57;1.80;99.90
25342;DHT22;13298;48.792;9.154;2023-12-04T11:28:25;1.80;99.90
25342;DHT22;13298;48.792;9.154;2023-12-04T11:30:53;1.70;99.90
25342;DHT22;13298;48.792;9.154;2023-12-04T11:33:20;1.70;99.90
25342;DHT22;13298;48.792;9.154;2023-12-04T11:35:46;1.50;99.90
25342;DHT22;13298;48.792;9.154;2023-12-04T11:38:14;1.50;99.90
25342;DHT22;13298;48.792;9.154;2023-12-04T11:40:41;1.50;99.90
25342;DHT22;13298;48.792;9.154;2023-12-04T11:43:27;1.40;99.90
25342;DHT22;13298;48.792;9.154;2023-12-04T11:46:07;1.40;99.90
25342;DHT22;13298;48.792;9.154;2023-12-04T11:48:34;1.40;99.90
25342;DHT22;13298;48.792;9.154;2023-12-04T11:51:00;1.50;99.90
25342;DHT22;13298;48.792;9.154;2023-12-04T11:53:26;1.60;99.90
25342;DHT22;13298;48.792;9.154;2023-12-04T11:55:55;1.70;99.90
25342;DHT22;13298;48.792;9.154;2023-12-04T11:58:22;1.70;99.90
25342;DHT22;13298;48.792;9.154;2023-12-04T12:00:48;1.70;99.90
25342;DHT22;13298;48.792;9.154;2023-12-04T12:03:15;1.60;99.90
25342;DHT22;13298;48.792;9.154;2023-12-04T12:05:40;1.60;99.90
25342;DHT22;13298;48.792;9.154;2023-12-04T12:08:07;1.50;99.90
25342;DHT22;13298;48.792;9.154;2023-12-04T12:10:34;1.50;99.90
25342;DHT22;13298;48.792;9.154;2023-12-04T12:13:00;1.50;99.90
25342;DHT22;13298;48.792;9.154;2023-12-04T12:15:27;1.60;99.90
25342;DHT22;13298;48.792;9.154;2023-12-04T12:17:53;1.60;99.90
25342;DHT22;13298;48.792;9.154;2023-12-04T12:20:19;1.60;99.90
25342;DHT22;13298;48.792;9.154;2023-12-04T12:22:46;1.70;99.90
25342;DHT22;13298;48.792;9.154;2023-12-04T12:25:13;1.70;99.90
25342;DHT22;13298;48.792;9.154;2023-12-04T12:27:39;1.70;99.90
25342;DHT22;13298;48.792;9.154;2023-12-04T12:30:07;1.70;99.90
25342;DHT22;13298;48.792;9.154;2023-12-04T12:32:36;1.70;99.90
25342;DHT22;13298;48.792;9.154;2023-12-04T12:35:02;1.70;99.90
25342;DHT22;13298;48.792;9.154;2023-12-04T12:37:33;1.70;99.90
25342;DHT22;13298;48.792;9.154;2023-12-04T12:39:58;1.60;99.90
25342;DHT22;13298;48.792;9.154;2023-12-04T12:42:25;1.50;99.90
25342;DHT22;13298;48.792;9.154;2023-12-04T12:44:55;1.40;99.90
25342;DHT22;13298;48.792;9.154;2023-12-04T12:47:25;1.40;99.90
25342;DHT22;13298;48.792;9.154;2023-12-04T12:49:52;1.30;99.90
25342;DHT22;13298;48.792;9.154;2023-12-04T12:52:19;1.30;99.90
25342;DHT22;13298;48.792;9.154;2023-12-04T12:54:45;1.20;99.90
25342;DHT22;13298;48.792;9.154;2023-12-04T12:57:11;1.20;99.90
25342;DHT22;13298;48.792;9.154;2023-12-04T12:59:38;1.10;99.90
25342;DHT22;13298;48.792;9.154;2023-12-04T13:02:05;1.10;99.90
25342;DHT22;13298;48.792;9.154;2023-12-04T13:04:40;1.20;99.90
25342;DHT22;13298;48.792;9.154;2023-12-04T13:07:07;1.30;99.90
25342;DHT22;13298;48.792;9.154;2023-12-04T13:09:33;1.30;99.90
25342;DHT22;13298;48.792;9.154;2023-12-04T13:12:01;1.40;99.90
25342;DHT22;13298;48.792;9.154;2023-12-04T13:14:27;1.50;99.90
25342;DHT22;13298;48.792;9.154;2023-12-04T13:16:52;1.60;99.90
25342;DHT22;13298;48.792;9.154;2023-12-04T13:19:20;1.60;99.90
25342;DHT22;13298;48.792;9.154;2023-12-04T13:21:46;1.70;99.90
25342;DHT22;13298;48.792;9.154;2023-12-04T13:24:12;1.70;99.90
25342;DHT22;13298;48.792;9.154;2023-12-04T13:26:38;1.70;99.90
25342;DHT22;13298;48.792;9.154;2023-12-04T13:29:04;1.80;99.90
25342;DHT22;13298;48.792;9.154;2023-12-04T13:31:31;1.80;99.90
25342;DHT22;13298;48.792;9.154;2023-12-04T13:33:59;1.80;99.90
25342;DHT22;13298;48.792;9.154;2023-12-04T13:36:24;1.80;99.90
25342;DHT22;13298;48.792;9.154;2023-12-04T13:38:52;1.80;99.90
25342;DHT22;13298;48.792;9.154;2023-12-04T13:41:19;1.80;99.90
25342;DHT22;13298;48.792;9.154;2023-12-04T13:44:05;1.70;99.90
25342;DHT22;13298;48.792;9.154;2023-12-04T13:46:30;1.70;99.90
25342;DHT22;13298;48.792;9.154;2023-12-04T13:48:57;1.60;99.90
25342;DHT22;13298;48.792;9.154;2023-12-04T13:51:23;1.60;99.90
25342;DHT22;13298;48.792;9.154;2023-12-04T13:53:49;1.50;99.90
25342;DHT22;13298;48.792;9.154;2023-12-04T13:56:20;1.50;99.90
25342;DHT22;13298;48.792;9.154;2023-12-04T13:58:49;1.50;99.90
25342;DHT22;13298;48.792;9.154;2023-12-04T14:01:23;1.50;99.90
25342;DHT22;13298;48.792;9.154;2023-12-04T14:03:50;1.40;99.90
25342;DHT22;13298;48.792;9.154;2023-12-04T14:06:17;1.30;99.90
25342;DHT22;13298;48.792;9.154;2023-12-04T14:08:43;1.20;99.90
25342;DHT22;13298;48.792;9.154;2023-12-04T14:11:08;1.20;99.90
25342;DHT22;13298;48.792;9.154;2023-12-04T14:13:37;1.10;99.90
25342;DHT22;13298;48.792;9.154;2023-12-04T14:16:05;1.10;99.90
25342;DHT22;13298;48.792;9.154;2023-12-04T14:18:31;1.00;99.90
25342;DHT22;13298;48.792;9.154;2023-12-04T14:20:57;1.00;99.90
25342;DHT22;13298;48.792;9.154;2023-12-04T14:23:23;0.90;99.90
25342;DHT22;13298;48.792;9.154;2023-12-04T14:25:49;0.90;99.90
25342;DHT22;13298;48.792;9.154;2023-12-04T14:28:15;0.90;99.90
25342;DHT22;13298;48.792;9.154;2023-12-04T14:30:40;0.80;99.90
25342;DHT22;13298;48.792;9.154;2023-12-04T14:33:07;0.80;99.90
25342;DHT22;13298;48.792;9.154;2023-12-04T14:35:34;0.80;99.90
25342;DHT22;13298;48.792;9.154;2023-12-04T14:38:02;0.70;99.90
25342;DHT22;13298;48.792;9.154;2023-12-04T14:40:31;0.70;99.90
25342;DHT22;13298;48.792;9.154;2023-12-04T14:42:57;0.70;99.90
25342;DHT22;13298;48.792;9.154;2023-12-04T14:45:22;0.60;99.90
25342;DHT22;13298;48.792;9.154;2023-12-04T14:47:48;0.60;99.90
25342;DHT22;13298;48.792;9.154;2023-12-04T14:50:16;0.60;99.90
25342;DHT22;13298;48.792;9.154;2023-12-04T14:52:42;0.60;99.90
25342;DHT22;13298;48.792;9.154;2023-12-04T14:55:15;0.50;99.90
25342;DHT22;13298;48.792;9.154;2023-12-04T14:58:04;0.40;99.90
25342;DHT22;13298;48.792;9.154;2023-12-04T15:00:42;0.40;99.90
25342;DHT22;13298;48.792;9.154;2023-12-04T15:03:22;0.40;99.90
25342;DHT22;13298;48.792;9.154;2023-12-04T15:06:07;0.40;99.90
25342;DHT22;13298;48.792;9.154;2023-12-04T15:08:39;0.30;99.90
25342;DHT22;13298;48.792;9.154;2023-12-04T15:11:19;0.30;99.90
25342;DHT22;13298;48.792;9.154;2023-12-04T15:14:12;0.20;99.90
25342;DHT22;13298;48.792;9.154;2023-12-04T15:17:02;0.20;99.90
25342;DHT22;13298;48.792;9.154;2023-12-04T15:19:54;0.20;99.90
25342;DHT22;13298;48.792;9.154;2023-12-04T15:22:43;0.20;99.90
25342;DHT22;13298;48.792;9.154;2023-12-04T15:25:08;0.20;99.90
25342;DHT22;13298;48.792;9.154;2023-12-04T15:27:37;0.20;99.90
25342;DHT22;13298;48.792;9.154;2023-12-04T15:30:04;0.20;99.90
25342;DHT22;13298;48.792;9.154;2023-12-04T15:32:33;0.10;99.90
25342;DHT22;13298;48.792;9.154;2023-12-04T15:34:59;0.20;99.90
25342;DHT22;13298;48.792;9.154;2023-12-04T15:37:25;0.20;99.90